1 de outubro de 2022

Hora Código Clima Temp. Visibilidade Tecto Vento METAR/SPECI
08:00
L
9 °C 10 mi 400 ft 060° 060° 9 kt METAR CYWG 011300Z 06009KT 10SM OVC004 09/09 A3029 RMK ST8 / SC ASOCTD / SLP266
07:52
L
9 °C 9 mi 400 ft 060° 060° 9 kt METAR CYWG 011252Z 06009KT 9SM OVC004 09/09 A3029 RMK ST8 SLP266
07:00
L
9 °C 7 mi 300 ft 060° 060° 8 kt METAR CYWG 011200Z 06008KT 7SM OVC003 09/09 A3028 RMK ST8 SLP263
06:00
L
9 °C 9 mi 300 ft 070° 070° 9 kt METAR CYWG 011100Z 07009KT 9SM OVC003 09/08 A3028 RMK ST8 / LO CIG / SLP260
05:43
L
9 °C 9 mi 400 ft 060° 060° 9 kt METAR CYWG 011043Z 06009KT 9SM OVC004 09/08 A3027 RMK ST8 / LO CIG / SLP258
05:00
I
8 °C 12 mi 500 ft 060° 060° 8 kt METAR CYWG 011000Z CCA 06008KT 12SM OVC005 08/08 A3026 RMK ST8 SLP254
04:52
I
8 °C 12 mi 600 ft 050° 050° 8 kt METAR CYWG 010952Z 05008KT 12SM OVC006 08/08 A3026 RMK SC8 / ST ASOCTD / SLP254
04:00
V
8 °C 15 mi - 040° 040° 8 kt METAR CYWG 010900Z 04008KT 15SM FEW010 FEW015 FEW200 08/07 A3025 RMK CF1SC1CI2 CF TR SC TR SLP250
03:00
V
8 °C 15 mi - 040° 040° 8 kt METAR CYWG 010800Z 04008KT 15SM SKC 08/07 A3023 RMK SLP245
02:00
V
8 °C 15 mi - 040° 040° 8 kt METAR CYWG 010700Z 04008KT 15SM SKC 08/08 A3023 RMK SLP244
01:00
V
9 °C 15 mi - 040° 040° 7 kt METAR CYWG 010600Z 04007KT 15SM SKC 09/08 A3022 RMK SLP242
00:00
V
9 °C 15 mi - 040° 040° 6 kt METAR CYWG 010500Z 04006KT 15SM SKC 09/08 A3022 RMK SLP240

30 de setembro de 2022

Hora Código Clima Temp. Visibilidade Tecto Vento METAR/SPECI
23:00
V
11 °C 15 mi - 030° 030° 8 kt METAR CYWG 010400Z 03008KT 15SM SKC 11/09 A3021 RMK SLP236
22:00
V
12 °C 15 mi - 030° 030° 8 kt METAR CYWG 010300Z 03008KT 15SM FEW250 12/10 A3019 RMK CI1 CI TR SLP230
21:00
V
13 °C 15 mi - 030° 030° 10 kt METAR CYWG 010200Z 03010KT 15SM FEW250 13/10 A3017 RMK CI1 SLP226
20:00
V
14 °C 15 mi - 020° 020° 11 kt METAR CYWG 010100Z 02011KT 15SM FEW250 14/11 A3015 RMK CI2 SLP217
19:00
V
16 °C 15 mi - 030° 030° 14 - 19 kt METAR CYWG 010000Z 03014G19KT 15SM FEW250 16/11 A3012 RMK CI2 SLP208 DENSITY ALT 900FT
18:00
V
18 °C 15 mi - 030° 030° 15 - 20 kt METAR CYWG 302300Z 03015G20KT 15SM FEW250 18/11 A3010 RMK CI2 SLP201 DENSITY ALT 1100FT
17:00
V
19 °C 15 mi - 040° 040° 13 - 19 kt METAR CYWG 302200Z 04013G19KT 15SM SCT250 19/11 A3009 RMK CI4 SLP198 DENSITY ALT 1300FT
16:00
V
20 °C 15 mi 25.000 ft 030° 030° 13 kt METAR CYWG 302100Z 03013KT 15SM BKN250 20/11 A3009 RMK CI6 CONTRAILS SLP197 DENSITY ALT 1400FT
15:00
V
20 °C 15 mi 25.000 ft 040° 040° 13 kt METAR CYWG 302000Z 04013KT 15SM BKN250 20/10 A3010 RMK CI7 SLP198 DENSITY ALT 1400FT
14:00
V
20 °C 15 mi 25.000 ft 050° 050° 11 kt METAR CYWG 301900Z 05011KT 15SM BKN250 20/08 A3011 RMK CI7 CONTRAILS SLP203 DENSITY ALT 1300FT
13:00
V
18 °C 15 mi 25.000 ft 060° 060° 9 kt METAR CYWG 301800Z 06009KT 15SM BKN250 18/08 A3012 RMK CI7 CONTRAILS SLP206 DENSITY ALT 1200FT
12:00
V
16 °C 15 mi 25.000 ft 060° 060° 8 kt METAR CYWG 301700Z 06008KT 15SM BKN250 16/08 A3012 RMK CI7 SLP206 DENSITY ALT 1000FT
11:00
V
14 °C 15 mi 25.000 ft 040° 040° 4 kt METAR CYWG 301600Z 04004KT 010V090 15SM OVC250 14/08 A3012 RMK CI8 CONTRAILS SLP206
10:00
V
12 °C 15 mi 25.000 ft 110° 110° 4 kt METAR CYWG 301500Z 11004KT 15SM BKN250 12/07 A3012 RMK CI7 CONTRAILS SLP207
09:00
V
8 °C 9 mi 30.000 ft 050° 050° 3 kt METAR CYWG 301400Z 05003KT 9SM FEW260 BKN300 08/07 A3010 RMK CI2CS3 / DIST BR ALQDS / SLP201
08:00
V
7 °C 9 mi - 050° 050° 5 kt METAR CYWG 301300Z 05005KT 9SM SCT260 07/06 A3009 RMK CI4 / DIST BR ALL HRZNS / CONTRAILS / SLP197
07:00
V
7 °C 15 mi - 100° 100° 6 kt METAR CYWG 301200Z 10006KT 15SM FEW260 07/06 A3008 RMK CI2 SLP193
06:00
V
7 °C 15 mi - 120° 120° 4 kt METAR CYWG 301100Z 12004KT 15SM SKC 07/06 A3007 RMK SLP188
05:00
V
7 °C 15 mi - 090° 090° 5 kt METAR CYWG 301000Z 09005KT 15SM SKC 07/06 A3005 RMK SLP184
04:00
V
7 °C 15 mi - 070° 070° 7 kt METAR CYWG 300900Z 07007KT 15SM SKC 07/06 A3005 RMK SLP182
03:00
V
8 °C 12 mi - 070° 070° 5 kt METAR CYWG 300800Z 07005KT 12SM SKC 08/06 A3005 RMK SLP183
02:00
V
8 °C 15 mi - 070° 070° 4 kt METAR CYWG 300700Z 07004KT 15SM SKC 08/06 A3005 RMK SLP181
01:00
V
9 °C 12 mi - 060° 060° 3 kt METAR CYWG 300600Z 06003KT 12SM SKC 09/07 A3004 RMK SLP180
00:00
V
10 °C 11 mi - 100° 100° 4 kt METAR CYWG 300500Z 10004KT 11SM SKC 10/07 A3005 RMK / DIST BR / SLP181

29 de setembro de 2022

Hora Código Clima Temp. Visibilidade Tecto Vento METAR/SPECI
23:00
V
12 °C 15 mi - 110° 110° 4 kt METAR CYWG 300400Z 11004KT 15SM SKC 12/07 A3004 RMK SLP178
22:00
V
12 °C 12 mi - 140° 140° 5 kt METAR CYWG 300300Z 14005KT 12SM SKC 12/07 A3003 RMK SLP177
21:00
V
14 °C 15 mi - 170° 170° 5 kt METAR CYWG 300200Z 17005KT 15SM SKC 14/07 A3002 RMK SLP171 DENSITY ALT 800FT
20:00
V
14 °C 15 mi - 160° 160° 8 kt METAR CYWG 300100Z 16008KT 15SM SKC 14/07 A3000 RMK SLP168 DENSITY ALT 800FT
19:00
V
16 °C 15 mi - 170° 170° 8 kt METAR CYWG 300000Z 17008KT 15SM SKC 16/08 A2999 RMK SLP162 DENSITY ALT 1100FT
18:00
V
20 °C 15 mi - 180° 180° 8 kt METAR CYWG 292300Z 18008KT 15SM SKC 20/07 A2999 RMK SLP161 DENSITY ALT 1500FT
17:00
V
21 °C 15 mi - 170° 170° 10 - 16 kt METAR CYWG 292200Z 17010G16KT 15SM SKC 21/08 A2998 RMK SLP156 DENSITY ALT 1700FT
16:00
V
21 °C 15 mi - 170° 170° 11 - 17 kt METAR CYWG 292100Z 17011G17KT 15SM SKC 21/06 A2998 RMK SLP156 DENSITY ALT 1700FT
15:00
V
21 °C 15 mi - 170° 170° 12 kt METAR CYWG 292000Z 17012KT 15SM SKC 21/06 A2998 RMK SLP159 DENSITY ALT 1600FT
14:00
V
20 °C 15 mi - 180° 180° 10 kt METAR CYWG 291900Z 18010KT 15SM SKC 20/05 A2999 RMK SLP162 DENSITY ALT 1600FT
13:00
V
19 °C 15 mi - 170° 170° 12 kt METAR CYWG 291800Z 17012KT 15SM SKC 19/05 A3001 RMK SLP167 DENSITY ALT 1300FT
12:00
V
17 °C 15 mi - 180° 180° 13 kt METAR CYWG 291700Z 18013KT 15SM FEW140 17/04 A3002 RMK AC1 AC TR SLP170 DENSITY ALT 1200FT
11:00
V
15 °C 15 mi - 200° 200° 14 kt METAR CYWG 291600Z 20014KT 15SM FEW140 15/02 A3002 RMK AC1 AC TR SLP173 DENSITY ALT 900FT
10:00
V
13 °C 15 mi - 190° 190° 15 - 23 kt METAR CYWG 291500Z 19015G23KT 15SM FEW140 13/02 A3003 RMK AC1 AC TR SLP176
09:00
V
11 °C 15 mi - 180° 180° 14 - 21 kt METAR CYWG 291400Z 18014G21KT 15SM FEW140 11/02 A3003 RMK AC1 AC TR SLP177
Dados mais antigos

Nós e terceiros acompanhamos seu comportamento na internet em nosso site com cookies. Se você continuar, nós assumimos que você concorda com nossa política de cookies. Saiba mais